createdAt,value
2024-01-22T00:00:15.093Z,6.30
2024-01-22T00:02:42.075Z,6.30
2024-01-22T00:05:11.567Z,6.20
2024-01-22T00:07:38.269Z,6.30
2024-01-22T00:10:06.096Z,6.30
2024-01-22T00:12:32.914Z,6.30
2024-01-22T00:14:59.471Z,6.30
2024-01-22T00:17:25.996Z,6.30
2024-01-22T00:19:52.648Z,6.30
2024-01-22T00:22:19.178Z,6.30
2024-01-22T00:24:45.782Z,6.40
2024-01-22T00:27:12.303Z,6.40
2024-01-22T00:29:38.942Z,6.40
2024-01-22T00:32:06.283Z,6.50
2024-01-22T00:34:32.891Z,6.50
2024-01-22T00:37:00.602Z,6.50
2024-01-22T00:39:27.141Z,6.50
2024-01-22T00:41:53.747Z,6.60
2024-01-22T00:44:20.273Z,6.60
2024-01-22T00:46:46.776Z,6.60
2024-01-22T00:49:13.764Z,6.50
2024-01-22T00:51:40.420Z,6.60
2024-01-22T00:54:07.022Z,6.60
2024-01-22T00:56:34.497Z,6.60
2024-01-22T00:59:01.136Z,6.60
2024-01-22T01:01:30.879Z,6.60
2024-01-22T01:03:57.746Z,6.60
2024-01-22T01:06:24.475Z,6.60
2024-01-22T01:08:51.111Z,6.60
2024-01-22T01:11:17.665Z,6.60
2024-01-22T01:13:44.186Z,6.60
2024-01-22T01:16:11.210Z,6.70
2024-01-22T01:18:37.958Z,6.70
2024-01-22T01:21:04.636Z,6.80
2024-01-22T01:23:31.168Z,6.80
2024-01-22T01:25:57.666Z,6.80
2024-01-22T01:28:24.224Z,6.80
2024-01-22T01:30:50.799Z,6.90
2024-01-22T01:33:17.442Z,6.90
2024-01-22T01:35:46.128Z,6.90
2024-01-22T01:38:13.013Z,6.90
2024-01-22T01:40:42.858Z,6.90
2024-01-22T01:43:09.880Z,6.90
2024-01-22T01:45:36.433Z,7.00
2024-01-22T01:48:03.749Z,7.00
2024-01-22T01:50:30.466Z,7.00
2024-01-22T01:52:57.410Z,7.00
2024-01-22T01:55:24.532Z,7.10
2024-01-22T01:57:57.305Z,7.10
2024-01-22T02:00:27.450Z,7.10
2024-01-22T02:02:54.360Z,7.10
2024-01-22T02:05:21.391Z,7.10
2024-01-22T02:07:48.498Z,7.20
2024-01-22T02:10:15.316Z,7.20
2024-01-22T02:12:42.018Z,7.30
2024-01-22T02:15:09.569Z,7.30
2024-01-22T02:17:36.395Z,7.40
2024-01-22T02:20:04.075Z,7.40
2024-01-22T02:22:30.634Z,7.40
2024-01-22T02:24:57.599Z,7.40
2024-01-22T02:27:25.110Z,7.40
2024-01-22T02:29:51.694Z,7.50
2024-01-22T02:32:18.450Z,7.50
2024-01-22T02:34:45.456Z,7.50
2024-01-22T02:37:12.155Z,7.60
2024-01-22T02:39:39.793Z,7.60
2024-01-22T02:42:06.430Z,7.60
2024-01-22T02:44:35.861Z,7.60
2024-01-22T02:47:03.457Z,7.70
2024-01-22T02:49:30.134Z,7.70
2024-01-22T02:51:56.739Z,7.70
2024-01-22T02:54:23.258Z,7.80
2024-01-22T02:56:49.870Z,7.80
2024-01-22T02:59:18.370Z,7.80
2024-01-22T03:01:45.110Z,7.80
2024-01-22T03:04:11.848Z,7.90
2024-01-22T03:06:39.951Z,7.90
2024-01-22T03:09:06.856Z,7.90
2024-01-22T03:11:33.453Z,7.90
2024-01-22T03:13:59.961Z,8.00
2024-01-22T03:16:26.582Z,8.00
2024-01-22T03:18:54.380Z,8.00
2024-01-22T03:21:21.052Z,8.00
2024-01-22T03:23:47.573Z,8.00
2024-01-22T03:26:23.983Z,8.00
2024-01-22T03:28:53.736Z,8.00
2024-01-22T03:31:24.836Z,8.00
2024-01-22T03:33:52.730Z,8.00
2024-01-22T03:36:20.015Z,7.90
2024-01-22T03:38:47.131Z,8.00
2024-01-22T03:41:13.847Z,8.00
2024-01-22T03:43:44.261Z,8.10
2024-01-22T03:46:12.193Z,8.10
2024-01-22T03:48:39.165Z,8.10
2024-01-22T03:51:06.311Z,8.10
2024-01-22T03:53:33.298Z,8.20
2024-01-22T03:56:03.983Z,8.20
2024-01-22T03:58:30.914Z,8.20
2024-01-22T04:00:57.731Z,8.20
2024-01-22T04:03:24.553Z,8.20
2024-01-22T04:05:51.525Z,8.20
2024-01-22T04:08:18.084Z,8.20
2024-01-22T04:10:44.712Z,8.20
2024-01-22T04:13:11.204Z,8.20
2024-01-22T04:15:37.749Z,8.20
2024-01-22T04:18:04.849Z,8.20
2024-01-22T04:20:31.473Z,8.20
2024-01-22T04:22:57.967Z,8.30
2024-01-22T04:25:24.470Z,8.30
2024-01-22T04:27:51.093Z,8.30
2024-01-22T04:30:17.641Z,8.30
2024-01-22T04:32:44.354Z,8.30
2024-01-22T04:35:11.496Z,8.30
2024-01-22T04:37:38.005Z,8.40
2024-01-22T04:40:12.649Z,8.40
2024-01-22T04:42:41.380Z,8.40
2024-01-22T04:45:08.437Z,8.50
2024-01-22T04:47:35.642Z,8.50
2024-01-22T04:50:02.586Z,8.50
2024-01-22T04:52:30.245Z,8.60
2024-01-22T04:55:05.272Z,8.50
2024-01-22T04:57:39.676Z,8.50
2024-01-22T05:00:06.922Z,8.60
2024-01-22T05:02:34.308Z,8.60
2024-01-22T05:05:02.757Z,8.70
2024-01-22T05:07:29.413Z,8.60
2024-01-22T05:10:05.662Z,8.70
2024-01-22T05:12:32.463Z,8.70
2024-01-22T05:14:59.103Z,8.70
2024-01-22T05:17:27.765Z,8.70
2024-01-22T05:19:54.533Z,8.80
2024-01-22T05:22:21.365Z,8.80
2024-01-22T05:24:48.251Z,8.80
2024-01-22T05:27:15.170Z,8.80
2024-01-22T05:29:41.914Z,8.80
2024-01-22T05:32:08.569Z,8.80
2024-01-22T05:34:35.141Z,8.80
2024-01-22T05:37:01.853Z,8.90
2024-01-22T05:39:28.510Z,8.90
2024-01-22T05:41:55.938Z,9.00
2024-01-22T05:44:22.884Z,9.00
2024-01-22T05:46:49.823Z,9.00
2024-01-22T05:49:16.848Z,9.10
2024-01-22T05:51:43.414Z,9.10
2024-01-22T05:54:11.019Z,9.10
2024-01-22T05:56:37.624Z,9.10
2024-01-22T05:59:04.770Z,9.20
2024-01-22T06:01:31.442Z,9.20
2024-01-22T06:03:58.605Z,9.30
2024-01-22T06:06:25.909Z,9.30
2024-01-22T06:08:52.708Z,9.40
2024-01-22T06:11:20.597Z,9.40
2024-01-22T06:13:56.936Z,9.50
2024-01-22T06:16:28.087Z,9.50
2024-01-22T06:18:54.796Z,9.60
2024-01-22T06:21:21.581Z,9.60
2024-01-22T06:23:49.070Z,9.70
2024-01-22T06:26:17.111Z,9.70
2024-01-22T06:28:43.891Z,9.80
2024-01-22T06:31:10.692Z,9.80
2024-01-22T06:33:37.385Z,9.80
2024-01-22T06:36:04.164Z,9.90
2024-01-22T06:38:30.779Z,9.90
2024-01-22T06:40:57.995Z,10.00
2024-01-22T06:43:24.723Z,10.00
2024-01-22T06:45:51.258Z,9.90
2024-01-22T06:48:18.006Z,10.00
2024-01-22T06:50:44.737Z,10.00
2024-01-22T06:53:11.325Z,9.90
2024-01-22T06:55:37.831Z,9.80
2024-01-22T06:58:04.564Z,9.70
2024-01-22T07:00:34.124Z,9.60
2024-01-22T07:03:00.992Z,9.50
2024-01-22T07:05:27.977Z,9.40
2024-01-22T07:07:55.260Z,9.40
2024-01-22T07:10:22.317Z,9.30
2024-01-22T07:12:48.967Z,9.30
2024-01-22T07:15:15.615Z,9.10
2024-01-22T07:17:42.826Z,9.00
2024-01-22T07:20:14.977Z,8.90
2024-01-22T07:22:45.200Z,8.80
2024-01-22T07:25:13.900Z,8.70
2024-01-22T07:27:40.897Z,8.70
2024-01-22T07:30:10.170Z,8.70
2024-01-22T07:32:37.881Z,8.70
2024-01-22T07:35:11.232Z,8.60
2024-01-22T07:37:39.120Z,8.50
2024-01-22T07:40:07.219Z,8.50
2024-01-22T07:42:34.902Z,8.40
2024-01-22T07:45:02.461Z,8.40
2024-01-22T07:47:29.186Z,8.50
2024-01-22T07:49:56.126Z,8.60
2024-01-22T07:52:23.430Z,8.50
2024-01-22T07:54:53.579Z,8.50
2024-01-22T07:57:20.166Z,8.50
2024-01-22T07:59:47.714Z,8.50
2024-01-22T08:02:14.487Z,8.60
2024-01-22T08:04:41.066Z,8.50
2024-01-22T08:07:07.936Z,8.50
2024-01-22T08:09:35.322Z,8.50
2024-01-22T08:12:01.893Z,8.50
2024-01-22T08:14:28.545Z,8.50
2024-01-22T08:16:55.193Z,8.50
2024-01-22T08:19:21.966Z,8.60
2024-01-22T08:21:49.845Z,8.60
2024-01-22T08:24:16.396Z,8.70
2024-01-22T08:26:43.278Z,8.70
2024-01-22T08:29:09.866Z,8.70
2024-01-22T08:31:36.483Z,8.70
2024-01-22T08:34:05.502Z,8.70
2024-01-22T08:36:32.482Z,8.70
2024-01-22T08:38:59.159Z,8.70
2024-01-22T08:41:28.905Z,8.70
2024-01-22T08:44:01.993Z,8.80
2024-01-22T08:46:28.841Z,8.80
2024-01-22T08:48:56.674Z,8.90
2024-01-22T08:51:23.350Z,9.00
2024-01-22T08:53:50.669Z,9.00
2024-01-22T08:56:17.256Z,9.20
2024-01-22T08:58:43.788Z,9.30
2024-01-22T09:01:10.450Z,9.30
2024-01-22T09:03:38.246Z,9.30
2024-01-22T09:06:07.905Z,9.30
2024-01-22T09:08:35.350Z,9.30
2024-01-22T09:11:03.106Z,9.30
2024-01-22T09:13:29.710Z,9.40
2024-01-22T09:15:58.384Z,9.40
2024-01-22T09:18:25.597Z,9.50
2024-01-22T09:20:53.744Z,9.50
2024-01-22T09:23:20.374Z,9.50
2024-01-22T09:25:47.004Z,9.60
2024-01-22T09:28:15.473Z,9.70
2024-01-22T09:30:42.673Z,9.70
2024-01-22T09:33:11.173Z,9.70
2024-01-22T09:35:42.305Z,9.80
2024-01-22T09:38:09.213Z,9.90
2024-01-22T09:40:36.028Z,9.90
2024-01-22T09:43:05.368Z,10.00
2024-01-22T09:45:33.696Z,10.00
2024-01-22T09:48:03.773Z,10.00
2024-01-22T09:50:31.112Z,10.10
2024-01-22T09:53:13.589Z,10.10
2024-01-22T09:55:42.055Z,10.10
2024-01-22T09:58:10.542Z,10.20
2024-01-22T10:00:39.143Z,10.20
2024-01-22T10:03:06.899Z,10.20
2024-01-22T10:05:33.568Z,10.20
2024-01-22T10:08:00.221Z,10.20
2024-01-22T10:10:27.061Z,10.10
2024-01-22T10:13:05.530Z,10.20
2024-01-22T10:15:35.322Z,10.20
2024-01-22T10:18:28.228Z,10.20
2024-01-22T10:20:58.114Z,10.10
2024-01-22T10:23:24.692Z,10.10
2024-01-22T10:25:51.200Z,10.20
2024-01-22T10:28:19.446Z,10.20
2024-01-22T10:30:47.675Z,10.30
2024-01-22T10:33:16.528Z,10.30
2024-01-22T10:35:44.330Z,10.30
2024-01-22T10:38:13.620Z,10.30
2024-01-22T10:40:40.896Z,10.40
2024-01-22T10:43:20.403Z,10.50
2024-01-22T10:45:51.734Z,10.40
2024-01-22T10:48:30.869Z,10.40
2024-01-22T10:51:06.418Z,10.40
2024-01-22T10:53:33.638Z,10.40
2024-01-22T10:56:03.740Z,10.30
2024-01-22T10:58:45.350Z,10.30
2024-01-22T11:01:17.610Z,10.30
2024-01-22T11:03:53.423Z,10.40
2024-01-22T11:06:24.161Z,10.40
2024-01-22T11:08:52.797Z,10.50
2024-01-22T11:11:21.035Z,10.60
2024-01-22T11:13:56.928Z,10.50
2024-01-22T11:16:24.058Z,10.60
2024-01-22T11:19:21.342Z,10.70
2024-01-22T11:21:47.963Z,10.70
2024-01-22T11:24:19.548Z,10.70
2024-01-22T11:26:52.902Z,10.70
2024-01-22T11:29:27.693Z,10.60
2024-01-22T11:31:55.699Z,10.60
2024-01-22T11:34:46.357Z,10.60
2024-01-22T11:37:33.352Z,10.50
2024-01-22T11:40:00.222Z,10.50
2024-01-22T11:42:29.464Z,10.60
2024-01-22T11:44:57.478Z,10.70
2024-01-22T11:47:24.926Z,10.70
2024-01-22T11:50:01.475Z,10.80
2024-01-22T11:52:30.676Z,10.80
2024-01-22T11:55:02.606Z,10.80
2024-01-22T11:57:32.886Z,10.90
2024-01-22T12:00:06.810Z,10.90
2024-01-22T12:02:40.409Z,10.90
2024-01-22T12:05:20.942Z,10.90
2024-01-22T12:07:49.770Z,10.90
2024-01-22T12:10:29.932Z,10.90
2024-01-22T12:13:04.631Z,11.00
2024-01-22T12:15:33.765Z,11.00
2024-01-22T12:18:02.677Z,11.00
2024-01-22T12:20:31.364Z,11.00
2024-01-22T12:23:02.787Z,11.10
2024-01-22T12:25:39.257Z,11.10
2024-01-22T12:28:09.181Z,11.00
2024-01-22T12:30:35.990Z,11.00
2024-01-22T12:33:03.188Z,11.10
2024-01-22T12:35:30.032Z,11.20
2024-01-22T12:37:56.902Z,11.20
2024-01-22T12:40:24.637Z,11.20
2024-01-22T12:42:59.050Z,11.30
2024-01-22T12:45:26.275Z,11.20
2024-01-22T12:47:53.552Z,11.30
2024-01-22T12:50:20.160Z,11.30
2024-01-22T12:52:47.664Z,11.20
2024-01-22T12:55:15.903Z,11.10
2024-01-22T12:57:44.279Z,11.10
2024-01-22T13:00:13.704Z,11.10
2024-01-22T13:02:40.992Z,11.10
2024-01-22T13:05:08.145Z,11.20
2024-01-22T13:07:35.039Z,11.20
2024-01-22T13:10:01.654Z,11.20
2024-01-22T13:12:28.428Z,11.20
2024-01-22T13:14:56.240Z,11.20
2024-01-22T13:17:23.215Z,11.20
2024-01-22T13:19:50.258Z,11.20
2024-01-22T13:22:17.116Z,11.20
2024-01-22T13:24:43.801Z,11.10
2024-01-22T13:27:10.517Z,11.10
2024-01-22T13:29:37.287Z,11.10
2024-01-22T13:32:04.392Z,11.10
2024-01-22T13:34:31.023Z,11.20
2024-01-22T13:36:57.617Z,11.20
2024-01-22T13:39:24.293Z,11.20
2024-01-22T13:41:50.965Z,11.10
2024-01-22T13:44:18.444Z,11.10
2024-01-22T13:46:45.437Z,11.10
2024-01-22T13:49:12.526Z,11.00
2024-01-22T13:51:39.321Z,11.10
2024-01-22T13:54:07.919Z,11.10
2024-01-22T13:56:39.763Z,11.10
2024-01-22T13:59:07.846Z,11.10
2024-01-22T14:01:34.815Z,11.10
2024-01-22T14:04:01.469Z,11.10
2024-01-22T14:06:29.038Z,11.10
2024-01-22T14:08:56.675Z,11.10
2024-01-22T14:11:23.476Z,11.00
2024-01-22T14:13:50.208Z,10.90
2024-01-22T14:16:18.161Z,10.90
2024-01-22T14:18:45.889Z,10.80
2024-01-22T14:21:14.242Z,10.80
2024-01-22T14:23:40.840Z,10.70
2024-01-22T14:26:08.749Z,10.60
2024-01-22T14:28:35.549Z,10.50
2024-01-22T14:31:03.238Z,10.40
2024-01-22T14:33:30.545Z,10.40
2024-01-22T14:35:57.659Z,10.30
2024-01-22T14:38:31.343Z,10.30
2024-01-22T14:41:01.129Z,10.20
2024-01-22T14:43:31.718Z,10.20
2024-01-22T14:45:58.380Z,10.10
2024-01-22T14:48:26.816Z,10.10
2024-01-22T14:50:53.922Z,10.10
2024-01-22T14:53:21.588Z,10.10
2024-01-22T14:55:48.305Z,9.90
2024-01-22T14:58:14.865Z,9.50
2024-01-22T15:00:41.461Z,9.10
2024-01-22T15:03:08.321Z,8.90
2024-01-22T15:05:35.071Z,8.80
2024-01-22T15:08:01.773Z,8.70
2024-01-22T15:10:28.590Z,8.70
2024-01-22T15:12:55.185Z,8.70
2024-01-22T15:15:22.082Z,8.60
2024-01-22T15:17:49.032Z,8.60
2024-01-22T15:20:15.964Z,8.60
2024-01-22T15:22:42.709Z,8.60
2024-01-22T15:25:10.249Z,8.70
2024-01-22T15:27:36.791Z,8.70
2024-01-22T15:30:06.720Z,8.80
2024-01-22T15:32:34.635Z,8.80
2024-01-22T15:35:03.431Z,8.90
2024-01-22T15:37:32.743Z,8.90
2024-01-22T15:39:59.552Z,9.00
2024-01-22T15:42:26.860Z,9.10
2024-01-22T15:44:53.668Z,9.10
2024-01-22T15:47:20.326Z,9.10
2024-01-22T15:49:47.015Z,9.20
2024-01-22T15:52:15.385Z,9.20
2024-01-22T15:54:42.167Z,9.30
2024-01-22T15:57:10.555Z,9.30
2024-01-22T15:59:40.045Z,9.20
2024-01-22T16:02:07.082Z,9.20
2024-01-22T16:04:35.151Z,9.20
2024-01-22T16:07:10.356Z,9.20
2024-01-22T16:09:42.922Z,9.20
2024-01-22T16:12:11.317Z,9.30
2024-01-22T16:14:37.946Z,9.30
2024-01-22T16:17:05.629Z,9.30
2024-01-22T16:19:34.830Z,9.20
2024-01-22T16:22:01.486Z,9.20
2024-01-22T16:24:28.137Z,9.20
2024-01-22T16:26:54.985Z,9.20
2024-01-22T16:29:21.627Z,9.10
2024-01-22T16:31:48.181Z,9.10
2024-01-22T16:34:16.121Z,9.10
2024-01-22T16:36:44.465Z,9.10
2024-01-22T16:39:11.158Z,9.10
2024-01-22T16:41:38.219Z,9.20
2024-01-22T16:44:07.302Z,9.10
2024-01-22T16:46:34.699Z,9.10
2024-01-22T16:49:01.888Z,9.10
2024-01-22T16:51:28.502Z,9.10
2024-01-22T16:53:55.097Z,9.10
2024-01-22T16:56:21.647Z,9.10
2024-01-22T16:58:48.195Z,9.10
2024-01-22T17:01:16.300Z,9.10
2024-01-22T17:03:44.187Z,9.00
2024-01-22T17:06:10.820Z,9.00
2024-01-22T17:08:40.800Z,9.00
2024-01-22T17:11:09.083Z,9.00
2024-01-22T17:13:38.094Z,9.00
2024-01-22T17:16:06.517Z,9.00
2024-01-22T17:18:33.547Z,8.90
2024-01-22T17:21:00.203Z,8.90
2024-01-22T17:23:26.915Z,8.80
2024-01-22T17:25:54.276Z,8.80
2024-01-22T17:28:20.973Z,8.80
2024-01-22T17:30:47.722Z,8.80
2024-01-22T17:33:16.451Z,8.80
2024-01-22T17:35:46.804Z,8.90
2024-01-22T17:38:14.013Z,8.80
2024-01-22T17:40:41.124Z,8.80
2024-01-22T17:43:09.482Z,8.70
2024-01-22T17:45:36.237Z,8.70
2024-01-22T17:48:03.747Z,8.70
2024-01-22T17:50:30.424Z,8.70
2024-01-22T17:52:56.987Z,8.60
2024-01-22T17:55:23.765Z,8.70
2024-01-22T17:57:51.332Z,8.70
2024-01-22T18:00:18.329Z,8.60
2024-01-22T18:02:45.398Z,8.50
2024-01-22T18:05:13.108Z,8.50
2024-01-22T18:07:39.756Z,8.50
2024-01-22T18:10:06.660Z,8.50
2024-01-22T18:12:33.285Z,8.40
2024-01-22T18:14:59.967Z,8.40
2024-01-22T18:17:28.202Z,8.40
2024-01-22T18:19:54.916Z,8.40
2024-01-22T18:22:21.607Z,8.40
2024-01-22T18:24:48.427Z,8.40
2024-01-22T18:27:15.376Z,8.40
2024-01-22T18:29:41.988Z,8.40
2024-01-22T18:32:08.544Z,8.50
2024-01-22T18:34:36.242Z,8.50
2024-01-22T18:37:04.364Z,8.50
2024-01-22T18:39:31.014Z,8.50
2024-01-22T18:41:57.645Z,8.50
2024-01-22T18:44:24.304Z,8.40
2024-01-22T18:46:50.862Z,8.40
2024-01-22T18:49:17.620Z,8.50
2024-01-22T18:51:45.633Z,8.50
2024-01-22T18:54:14.490Z,8.50
2024-01-22T18:56:43.630Z,8.50
2024-01-22T18:59:10.194Z,8.50
2024-01-22T19:01:36.717Z,8.50
2024-01-22T19:04:03.477Z,8.50
2024-01-22T19:06:30.249Z,8.40
2024-01-22T19:08:56.844Z,8.40
2024-01-22T19:11:23.388Z,8.40
2024-01-22T19:13:50.799Z,8.40
2024-01-22T19:16:17.624Z,8.40
2024-01-22T19:18:45.195Z,8.50
2024-01-22T19:21:18.319Z,8.50
2024-01-22T19:23:45.350Z,8.50
2024-01-22T19:26:12.021Z,8.60
2024-01-22T19:28:38.521Z,8.60
2024-01-22T19:31:05.611Z,8.60
2024-01-22T19:33:32.221Z,8.60
2024-01-22T19:35:58.917Z,8.60
2024-01-22T19:38:25.505Z,8.50
2024-01-22T19:40:52.490Z,8.50
2024-01-22T19:43:22.001Z,8.50
2024-01-22T19:45:48.560Z,8.40
2024-01-22T19:48:15.172Z,8.40
2024-01-22T19:50:42.027Z,8.40
2024-01-22T19:53:08.567Z,8.30
2024-01-22T19:55:35.106Z,8.30
2024-01-22T19:58:01.896Z,8.20
2024-01-22T20:00:28.614Z,8.20
2024-01-22T20:02:55.472Z,8.20
2024-01-22T20:05:22.713Z,8.20
2024-01-22T20:07:53.681Z,8.20
2024-01-22T20:10:25.741Z,8.20
2024-01-22T20:12:53.060Z,8.20
2024-01-22T20:15:20.529Z,8.20
2024-01-22T20:17:47.246Z,8.20
2024-01-22T20:20:15.517Z,8.10
2024-01-22T20:22:42.201Z,8.10
2024-01-22T20:25:12.434Z,8.10
2024-01-22T20:27:40.476Z,8.10
2024-01-22T20:30:08.685Z,8.20
2024-01-22T20:32:35.270Z,8.10
2024-01-22T20:35:01.974Z,8.10
2024-01-22T20:37:28.822Z,8.20
2024-01-22T20:39:55.435Z,8.20
2024-01-22T20:42:24.704Z,8.10
2024-01-22T20:44:51.658Z,8.10
2024-01-22T20:47:18.220Z,8.10
2024-01-22T20:49:44.851Z,8.10
2024-01-22T20:52:11.507Z,8.10
2024-01-22T20:54:38.776Z,8.10
2024-01-22T20:57:05.457Z,8.20
2024-01-22T20:59:33.371Z,8.20
2024-01-22T21:02:00.294Z,8.20
2024-01-22T21:04:27.301Z,8.20
2024-01-22T21:06:54.452Z,8.30
2024-01-22T21:09:21.859Z,8.30
2024-01-22T21:11:49.132Z,8.30
2024-01-22T21:14:16.950Z,8.30
2024-01-22T21:16:44.141Z,8.30
2024-01-22T21:19:13.299Z,8.30
2024-01-22T21:21:41.996Z,8.30
2024-01-22T21:24:09.283Z,8.30
2024-01-22T21:26:36.156Z,8.30
2024-01-22T21:29:06.465Z,8.30
2024-01-22T21:31:35.079Z,8.30
2024-01-22T21:34:01.943Z,8.30
2024-01-22T21:36:28.661Z,8.30
2024-01-22T21:38:55.270Z,8.20
2024-01-22T21:41:21.852Z,8.20
2024-01-22T21:43:49.094Z,8.30
2024-01-22T21:46:15.746Z,8.30
2024-01-22T21:48:43.675Z,8.30
2024-01-22T21:51:11.706Z,8.30
2024-01-22T21:53:42.388Z,8.40
2024-01-22T21:56:11.009Z,8.40
2024-01-22T21:58:37.668Z,8.40
2024-01-22T22:01:05.243Z,8.40
2024-01-22T22:03:34.766Z,8.40
2024-01-22T22:06:01.775Z,8.50
2024-01-22T22:08:28.718Z,8.50
2024-01-22T22:10:55.566Z,8.50
2024-01-22T22:13:22.148Z,8.50
2024-01-22T22:15:49.231Z,8.50
2024-01-22T22:18:16.155Z,8.50
2024-01-22T22:20:42.792Z,8.50
2024-01-22T22:23:09.495Z,8.60
2024-01-22T22:25:36.079Z,8.60
2024-01-22T22:28:02.920Z,8.60
2024-01-22T22:30:29.652Z,8.60
2024-01-22T22:32:58.607Z,8.70
2024-01-22T22:35:25.996Z,8.70
2024-01-22T22:37:52.799Z,8.70
2024-01-22T22:40:19.429Z,8.70
2024-01-22T22:42:46.031Z,8.70
2024-01-22T22:45:12.694Z,8.70
2024-01-22T22:47:39.540Z,8.70
2024-01-22T22:50:08.658Z,8.70
2024-01-22T22:52:35.419Z,8.70
2024-01-22T22:55:02.076Z,8.70
2024-01-22T22:57:29.335Z,8.70
2024-01-22T22:59:56.153Z,8.70
2024-01-22T23:02:23.202Z,8.70
2024-01-22T23:04:49.933Z,8.70
2024-01-22T23:07:16.633Z,8.70
2024-01-22T23:09:43.264Z,8.70
2024-01-22T23:12:09.956Z,8.70
2024-01-22T23:14:36.851Z,8.70
2024-01-22T23:17:03.420Z,8.70
2024-01-22T23:19:29.948Z,8.70
2024-01-22T23:21:56.455Z,8.70
2024-01-22T23:24:23.045Z,8.70
2024-01-22T23:26:49.793Z,8.70
2024-01-22T23:29:16.412Z,8.70
2024-01-22T23:31:48.076Z,8.70
2024-01-22T23:34:18.050Z,8.70
2024-01-22T23:36:44.820Z,8.70
2024-01-22T23:39:11.360Z,8.70
2024-01-22T23:41:37.892Z,8.70
2024-01-22T23:44:04.386Z,8.70
2024-01-22T23:46:30.947Z,8.70
2024-01-22T23:48:57.547Z,8.70
2024-01-22T23:51:24.175Z,8.70
2024-01-22T23:53:50.722Z,8.70
2024-01-22T23:56:17.320Z,8.60
2024-01-22T23:58:45.575Z,8.70
